Flight Track Log - Related Links

Times and Time Zones

All times are in EDT time to prevent confusion due to time zone crossing. See the DAL6234 flight status page for this flight to view local times or setup timezone preferences in your user account.

Time Position Orientation Groundspeed Altitude Reporting Facility
EDT Latitude Longitude Course Direction KTS MPH feet Rate Location/Type
Wed 04:14:02 PM 40.7333 -73.8167 313° West 224 258 4,100  Level New York TRACON
Wed 04:14:56 PM 40.7833 -73.7833 27° Northeast 259 298 6,400 1,645 Climbing New York TRACON
Wed 04:17:19 PM 40.9156 -73.9206 322° Northwest 291 335 9,500 1,890 Climbing New York Center
Wed 04:18:16 PM 40.9892 -73.9736 331° Northwest 280 322 12,700 2,441 Climbing New York Center
Wed 04:19:00 PM 41.0776 -74.3465 313° West  Level FlightAware Approximate
Wed 04:19:17 PM 41.0733 -74.0161 339° North 300 345 14,300  Level New York Center
Wed 04:20:17 PM 41.1094 -74.1389 291° West 335 386 15,900 1,636 Climbing New York Center
Wed 04:21:18 PM 41.1453 -74.2675 290° West 361 415 17,600 1,587 Climbing New York Center
Wed 04:22:18 PM 41.1750 -74.3847 289° West 382 440 19,100 1,932 Climbing New York Center
Wed 04:23:16 PM 41.2439 -74.5100 306° West 380 437 21,400 1,475 Climbing New York Center
Wed 04:24:16 PM 41.3089 -74.6322 305° West 391 450 22,000 298 Climbing New York Center
Wed 04:25:17 PM 41.3778 -74.7497 308° West 396 456 22,000  Level New York Center
Wed 04:26:17 PM 41.4447 -74.8642 308° West 396 456 22,000  Level New York Center
Wed 04:27:18 PM 41.5094 -74.9761 308° West 396 456 22,000  Level New York Center
Wed 04:28:18 PM 41.5781 -75.0997 307° West 402 463 22,000  Level New York Center
Wed 04:29:18 PM 41.6483 -75.2208 308° West 408 470 22,000  Level New York Center
Wed 04:30:16 PM 41.7167 -75.3422 307° West 408 470 22,000  Level New York Center
Wed 04:31:16 PM 41.7867 -75.4667 307° West 413 475 22,000  Level New York Center
Wed 04:32:17 PM 41.8531 -75.5828 308° West 408 470 22,000  Level New York Center
Wed 04:33:18 PM 41.9189 -75.7017 307° West 403 464 22,000  Level New York Center
Wed 04:34:18 PM 41.9844 -75.8236 306° West 398 458 22,000 -446 Level New York Center
Wed 04:35:19 PM 42.0483 -75.9375 307° West 398 458 21,100 -1,109 Descending New York Center
Wed 04:36:17 PM 42.1100 -76.0514 306° West 392 451 19,800 -1,462 Descending New York Center
Wed 04:37:18 PM 42.1872 -76.1358 321° Northwest 382 440 18,200 -1,785 Descending New York Center
Wed 04:38:18 PM 42.2836 -76.1269 North 327 376 16,200 -2,337 Descending New York Center
Wed 04:38:53 PM 42.3447 -76.1231 North 335 386 14,500 -2,316 Descending Boston Center
Wed 04:40:12 PM 42.4619 -76.1075 North 317 365 11,800 -1,457 Descending Boston Center
Wed 04:41:13 PM 42.5436 -76.0956 North 309 356 11,100 -385 Descending Boston Center
Wed 04:42:01 PM 42.6169 -76.0886 North 303 349 11,100 -55 Level Boston Center
Wed 04:43:02 PM 42.6950 -76.1242 341° North 304 350 11,000 -893 Descending Boston Center
Wed 04:44:02 PM 42.7667 -76.1681 336° Northwest 280 322 9,300 -1,785 Descending Boston Center
Wed 04:45:03 PM 42.8403 -76.2064 339° North 281 323 7,400 -1,810 Descending Boston Center
Wed 04:45:58 PM 42.9075 -76.2531 333° Northwest 288 331 5,800 -1,670 Descending Boston Center
Wed 04:46:58 PM 42.9636 -76.3219 318° Northwest 271 312 4,200 -843 Descending Boston Center
Wed 04:47:59 PM 43.0203 -76.3767 325° Northwest 244 281 4,100 -98 Descending Boston Center
Wed 04:49:00 PM 43.0756 -76.3433 24° Northeast 211 243 4,000 -645 Descending Boston Center
Wed 04:50:00 PM 43.1025 -76.2825 59° Northeast 182 209 2,800 -1,041 Descending Boston Center
Wed 04:51:01 PM 43.1044 -76.2283 87° East 126 145 1,900 -885 Descending Boston Center

Login

Don't have an account? Register now (free) for customized features, flight alerts, and more!